Pine, Arizona
Current Conditions -  °F | °C
As of 1:15 AM on Monday 24 Nov 2014 (Local Time) from KPAN Reporting Station
Clear Clear  
Wind Chill: 36°   Ceiling: Unl
Heat Index: 36°   Visibility: 10mi
Dew Point: -9°   Wind: 3mph
Humidity: 14%   Direction: 270°W
Pressure: 30.22"   Gusts: NA
Location:  34.38°N, 111.46°W
Report Text: KPAN 240815Z AUTO 27003KT 10SM CLR 02/M23 A3022 RMK AO2
Loading
Personal Weather Stations






























Interactive Weather Map New forecast layout! Learn more

10-Day Weather Forecast

Advertisements
Track Severe Weather on mobile